Time;durP1;ratioP1;P1;durP2;ratioP2;P2;SDS_P1;SDS_P2;PMS_P1;PMS_P2;Temp;Humidity;BMP_temperature;BMP_pressure;BME280_temperature;BME280_humidity;BME280_pressure;Samples;Min_cycle;Max_cycle;Signal;HPM_P1;HPM_P2
2022/04/15 00:01:29;;;;;;;33.33;29.73;;;;;;;5.39;100.00;98624.41;1781768;80;20999;-74
2022/04/15 00:03:57;;;;;;;26.00;20.03;;;;;;;5.38;100.00;98614.16;1781491;80;21081;-74
2022/04/15 00:06:24;;;;;;;24.67;20.20;;;;;;;5.38;100.00;98612.83;1781271;80;21019;-75
2022/04/15 00:08:52;;;;;;;21.73;16.33;;;;;;;5.36;100.00;98609.48;1781722;80;21015;-74
2022/04/15 00:11:21;;;;;;;21.83;16.00;;;;;;;5.32;100.00;98603.63;1781634;80;21054;-73
2022/04/15 00:13:49;;;;;;;22.57;15.03;;;;;;;5.28;100.00;98598.30;1781182;80;21006;-75
2022/04/15 00:16:16;;;;;;;19.30;12.33;;;;;;;5.26;100.00;98608.88;1768412;80;21022;-75
2022/04/15 00:18:44;;;;;;;19.23;11.90;;;;;;;5.22;100.00;98611.03;1768509;80;21027;-74
2022/04/15 00:21:11;;;;;;;17.53;11.17;;;;;;;5.18;100.00;98612.39;1781205;80;21099;-74
2022/04/15 00:23:38;;;;;;;16.83;9.87;;;;;;;5.11;100.00;98613.57;1780900;80;21065;-74
2022/04/15 00:26:07;;;;;;;16.80;10.53;;;;;;;5.10;100.00;98613.25;1781687;80;21440;-74
2022/04/15 00:28:35;;;;;;;18.13;10.60;;;;;;;5.08;100.00;98612.59;1778115;79;21038;-74
2022/04/15 00:31:02;;;;;;;20.43;11.37;;;;;;;5.05;100.00;98611.59;1759069;80;21054;-74
2022/04/15 00:33:31;;;;;;;19.30;11.73;;;;;;;4.99;100.00;98605.55;1750185;82;21065;-74
2022/04/15 00:35:59;;;;;;;18.40;11.07;;;;;;;4.94;100.00;98608.77;1754229;82;21062;-74
2022/04/15 00:38:26;;;;;;;17.03;10.40;;;;;;;4.92;100.00;98609.44;1745257;80;21007;-73
2022/04/15 00:40:54;;;;;;;18.13;10.63;;;;;;;4.93;100.00;98606.25;1706745;83;21073;-74
2022/04/15 00:43:21;;;;;;;17.90;10.70;;;;;;;4.91;100.00;98610.95;1719451;82;21093;-74
2022/04/15 00:45:48;;;;;;;18.87;11.50;;;;;;;4.88;100.00;98611.28;1721969;82;21022;-73
2022/04/15 00:48:19;;;;;;;18.57;10.83;;;;;;;4.83;100.00;98613.11;1771977;81;21569;-73
2022/04/15 00:50:48;;;;;;;20.47;11.73;;;;;;;4.78;100.00;98619.51;1771892;81;21094;-73
2022/04/15 00:53:17;;;;;;;19.87;11.57;;;;;;;4.74;100.00;98621.66;1752279;81;21037;-72
2022/04/15 00:55:44;;;;;;;20.83;13.03;;;;;;;4.71;100.00;98615.32;1752344;81;21519;-73
2022/04/15 00:58:11;;;;;;;27.33;16.63;;;;;;;4.70;100.00;98620.33;1752366;81;20998;-72
2022/04/15 01:00:38;;;;;;;26.53;17.10;;;;;;;4.71;100.00;98618.48;1736163;81;21057;-73
2022/04/15 01:03:06;;;;;;;24.63;16.23;;;;;;;4.71;100.00;98614.46;1771477;81;21057;-74
2022/04/15 01:05:33;;;;;;;27.00;18.00;;;;;;;4.67;100.00;98613.13;1772002;81;21546;-73
2022/04/15 01:08:03;;;;;;;28.63;18.40;;;;;;;4.66;100.00;98611.48;1771506;81;21073;-73
2022/04/15 01:10:36;;;;;;;66.23;41.43;;;;;;;4.64;100.00;98610.78;1771448;81;21034;-74
2022/04/15 01:13:05;;;;;;;40.77;25.20;;;;;;;4.60;100.00;98612.13;1771756;81;21029;-73
2022/04/15 01:15:32;;;;;;;37.57;22.93;;;;;;;4.58;100.00;98614.15;1751768;81;21070;-73
2022/04/15 01:18:00;;;;;;;33.07;21.30;;;;;;;4.54;100.00;98616.33;1771689;81;21037;-73
2022/04/15 01:20:28;;;;;;;35.17;23.90;;;;;;;4.49;100.00;98616.81;1771589;81;20995;-73
2022/04/15 01:23:09;;;;;;;32.97;21.57;;;;;;;4.46;100.00;98618.98;1752437;81;21503;-74
2022/04/15 01:25:37;;;;;;;27.20;18.87;;;;;;;4.40;100.00;98613.80;1770314;80;20978;-73
2022/04/15 01:28:05;;;;;;;32.07;20.00;;;;;;;4.31;100.00;98620.98;1785206;79;21045;-73
2022/04/15 01:30:32;;;;;;;30.50;20.03;;;;;;;4.24;100.00;98625.84;1786709;79;21490;-74
2022/04/15 01:32:59;;;;;;;33.60;21.50;;;;;;;4.18;100.00;98628.68;1784682;79;20982;-73
2022/04/15 01:35:26;;;;;;;28.27;19.23;;;;;;;4.14;100.00;98624.64;1777870;80;21053;-73
2022/04/15 01:37:53;;;;;;;28.20;18.33;;;;;;;4.10;100.00;98621.45;1756000;81;21026;-73
2022/04/15 01:40:20;;;;;;;29.73;19.27;;;;;;;4.08;100.00;98629.33;1755416;81;20998;-73
2022/04/15 01:42:47;;;;;;;31.87;20.07;;;;;;;4.04;100.00;98627.48;1777453;81;20994;-73
2022/04/15 01:45:15;;;;;;;29.37;18.27;;;;;;;4.03;100.00;98626.30;1755234;81;21045;-72
2022/04/15 01:47:41;;;;;;;28.20;17.83;;;;;;;4.03;100.00;98628.47;1777364;81;20998;-73
2022/04/15 01:50:11;;;;;;;28.03;17.43;;;;;;;4.04;100.00;98623.47;1755661;81;20998;-73
2022/04/15 01:52:38;;;;;;;25.33;16.73;;;;;;;4.05;100.00;98617.61;1777171;80;21022;-72
2022/04/15 01:55:08;;;;;;;25.10;16.33;;;;;;;4.04;100.00;98620.79;1755464;81;21009;-73
2022/04/15 01:57:35;;;;;;;26.63;17.97;;;;;;;4.04;100.00;98623.47;1777401;81;21011;-73
2022/04/15 02:00:06;;;;;;;24.37;16.00;;;;;;;4.04;100.00;98621.27;1777081;81;21026;-73
2022/04/15 02:02:36;;;;;;;23.40;15.23;;;;;;;4.03;100.00;98618.27;1774108;81;21011;-73
2022/04/15 02:05:04;;;;;;;20.77;13.47;;;;;;;4.03;100.00;98624.96;1777121;80;21030;-72
2022/04/15 02:07:31;;;;;;;20.43;13.10;;;;;;;4.00;100.00;98622.09;1730734;81;20990;-73
2022/04/15 02:09:58;;;;;;;20.50;12.40;;;;;;;3.98;100.00;98618.75;1755444;81;21022;-74
2022/04/15 02:12:26;;;;;;;22.80;13.23;;;;;;;3.97;100.00;98619.27;1777184;80;21021;-75
2022/04/15 02:14:53;;;;;;;20.13;12.83;;;;;;;3.99;100.00;98615.09;1777074;81;21045;-73
2022/04/15 02:17:22;;;;;;;20.97;12.33;;;;;;;4.01;100.00;98613.09;1776906;81;21100;-74
2022/04/15 02:19:50;;;;;;;20.67;12.17;;;;;;;4.03;100.00;98616.94;1777226;80;21025;-72
2022/04/15 02:22:17;;;;;;;20.90;12.67;;;;;;;4.03;100.00;98618.27;1777348;80;20990;-74
2022/04/15 02:24:44;;;;;;;17.27;10.20;;;;;;;4.02;100.00;98611.23;1777141;80;21030;-73
2022/04/15 02:27:11;;;;;;;20.27;10.07;;;;;;;4.02;100.00;98609.42;1755823;80;21080;-73
2022/04/15 02:29:38;;;;;;;19.10;10.30;;;;;;;3.99;100.00;98610.57;1784168;80;21010;-72
2022/04/15 02:32:07;;;;;;;16.30;9.47;;;;;;;3.96;100.00;98610.06;1762459;80;21026;-74
2022/04/15 02:34:34;;;;;;;14.90;9.00;;;;;;;3.90;100.00;98611.56;1780362;80;20991;-73
2022/04/15 02:37:02;;;;;;;15.27;8.60;;;;;;;3.87;100.00;98615.89;1779016;80;21088;-72
2022/04/15 02:39:29;;;;;;;14.33;7.77;;;;;;;3.86;100.00;98620.92;1779303;80;21031;-73
2022/04/15 02:41:56;;;;;;;11.80;7.50;;;;;;;3.82;100.00;98626.23;1768174;81;21074;-73
2022/04/15 02:44:23;;;;;;;14.27;7.63;;;;;;;3.79;100.00;98632.75;1779389;79;21445;-73
2022/04/15 02:46:52;;;;;;;12.47;7.03;;;;;;;3.74;100.00;98634.25;1779099;81;21047;-72
2022/04/15 02:49:21;;;;;;;15.67;7.20;;;;;;;3.72;100.00;98641.56;1779531;80;21031;-73
2022/04/15 02:51:50;;;;;;;14.43;7.80;;;;;;;3.69;100.00;98639.23;1768538;81;21050;-73
2022/04/15 02:54:18;;;;;;;13.03;7.83;;;;;;;3.65;100.00;98643.20;1768472;81;21011;-73
2022/04/15 02:56:45;;;;;;;13.33;7.90;;;;;;;3.63;100.00;98653.23;1779414;80;21043;-74
2022/04/15 02:59:12;;;;;;;12.33;7.47;;;;;;;3.60;100.00;98653.06;1779195;80;21015;-73
2022/04/15 03:01:39;;;;;;;12.23;7.07;;;;;;;3.57;100.00;98648.86;1779194;81;21019;-73
2022/04/15 03:04:06;;;;;;;12.70;7.57;;;;;;;3.54;100.00;98647.88;1779271;80;21011;-72
2022/04/15 03:06:34;;;;;;;12.87;7.40;;;;;;;3.53;100.00;98653.37;1779260;81;21011;-73
2022/04/15 03:09:01;;;;;;;13.40;7.60;;;;;;;3.53;100.00;98659.55;1768391;81;21500;-73
2022/04/15 03:11:32;;;;;;;13.77;8.10;;;;;;;3.52;100.00;98657.02;1779209;81;21488;-73
2022/04/15 03:13:59;;;;;;;12.53;7.03;;;;;;;3.51;100.00;98658.87;1779309;81;21012;-72
2022/04/15 03:16:26;;;;;;;14.20;8.07;;;;;;;3.50;100.00;98655.02;1768532;81;20992;-73
2022/04/15 03:18:55;;;;;;;14.30;8.30;;;;;;;3.49;100.00;98658.67;1779224;80;21007;-73
2022/04/15 03:21:22;;;;;;;15.17;8.50;;;;;;;3.49;100.00;98657.34;1768642;81;21085;-73
2022/04/15 03:23:49;;;;;;;16.53;8.90;;;;;;;3.49;100.00;98658.20;1779145;80;21070;-72
2022/04/15 03:26:18;;;;;;;17.00;9.97;;;;;;;3.50;100.00;98661.70;1768694;81;21034;-73
2022/04/15 03:28:45;;;;;;;18.67;10.07;;;;;;;3.51;100.00;98666.06;1793616;78;21002;-73
2022/04/15 03:31:13;;;;;;;16.80;9.63;;;;;;;3.53;100.00;98664.89;1779553;80;21510;-72
2022/04/15 03:33:40;;;;;;;16.97;10.17;;;;;;;3.56;100.00;98657.89;1791914;79;21082;-72
2022/04/15 03:36:08;;;;;;;19.43;10.10;;;;;;;3.61;100.00;98662.27;1779434;80;21094;-73
2022/04/15 03:38:35;;;;;;;19.63;10.57;;;;;;;3.66;100.00;98660.94;1779144;80;21023;-73
2022/04/15 03:41:02;;;;;;;19.27;10.83;;;;;;;3.70;100.00;98652.92;1779165;81;21106;-73
2022/04/15 03:43:31;;;;;;;20.43;11.73;;;;;;;3.75;100.00;98646.59;1779222;80;21054;-73
2022/04/15 03:45:58;;;;;;;20.57;11.80;;;;;;;3.77;100.00;98640.59;1779282;80;21066;-72
2022/04/15 03:48:25;;;;;;;18.40;10.67;;;;;;;3.78;100.00;98640.42;1779319;80;21094;-71
2022/04/15 03:50:54;;;;;;;20.60;10.27;;;;;;;3.82;100.00;98634.25;1779220;80;21027;-73
2022/04/15 03:53:22;;;;;;;19.93;11.00;;;;;;;3.87;100.00;98632.44;1768384;81;21102;-73
2022/04/15 03:55:51;;;;;;;17.80;10.03;;;;;;;3.91;100.00;98632.45;1779295;80;21031;-73
2022/04/15 03:58:20;;;;;;;19.43;10.57;;;;;;;3.97;100.00;98627.80;1768491;81;21008;-74
2022/04/15 04:00:48;;;;;;;21.20;11.30;;;;;;;4.02;100.00;98627.29;1779054;81;21505;-73
2022/04/15 04:03:16;;;;;;;21.07;10.50;;;;;;;4.04;100.00;98614.58;1779280;81;21027;-72
2022/04/15 04:05:43;;;;;;;22.43;11.40;;;;;;;4.09;100.00;98614.45;1768428;81;21051;-73
2022/04/15 04:08:10;;;;;;;22.50;11.57;;;;;;;4.12;100.00;98614.09;1779557;80;20984;-73
2022/04/15 04:10:38;;;;;;;21.23;12.07;;;;;;;4.19;100.00;98607.59;1779343;81;21031;-74
2022/04/15 04:13:07;;;;;;;21.93;11.43;;;;;;;4.25;100.00;98606.95;1779482;80;20983;-72
2022/04/15 04:15:34;;;;;;;20.70;11.43;;;;;;;4.31;100.00;98590.73;1768559;81;21027;-73
2022/04/15 04:18:01;;;;;;;18.93;10.77;;;;;;;4.40;100.00;98591.56;1779521;81;21034;-74
2022/04/15 04:20:28;;;;;;;21.37;11.43;;;;;;;4.46;100.00;98582.38;1768456;81;20988;-74
2022/04/15 04:22:55;;;;;;;20.13;11.40;;;;;;;4.52;100.00;98576.84;1779587;80;21058;-73
2022/04/15 04:25:24;;;;;;;19.87;11.73;;;;;;;4.58;100.00;98569.47;1768816;81;21127;-72
2022/04/15 04:27:51;;;;;;;22.30;12.03;;;;;;;4.67;100.00;98564.94;1773890;79;20989;-74
2022/04/15 04:30:18;;;;;;;23.30;12.60;;;;;;;4.77;100.00;98556.73;1751459;79;20986;-75
2022/04/15 04:32:49;;;;;;;26.47;13.80;;;;;;;4.85;100.00;98544.66;1805565;79;20970;-75
2022/04/15 04:35:14;;;;;;;23.43;12.63;;;;;;;4.98;100.00;98533.42;1768281;81;21019;-75
2022/04/15 04:37:44;;;;;;;25.27;13.33;;;;;;;5.11;100.00;98514.95;1749428;81;21077;-76
2022/04/15 04:40:12;;;;;;;25.30;13.67;;;;;;;5.27;100.00;98500.13;1767844;81;21582;-77
2022/04/15 04:42:40;;;;;;;26.37;13.93;;;;;;;5.43;100.00;98483.64;1767714;81;21014;-76
2022/04/15 04:45:10;;;;;;;28.00;15.20;;;;;;;5.61;100.00;98472.16;1767705;81;21034;-74
2022/04/15 04:47:40;;;;;;;27.83;15.37;;;;;;;5.78;100.00;98454.08;1746879;81;21010;-75
2022/04/15 04:50:09;;;;;;;29.20;16.47;;;;;;;5.96;100.00;98436.88;1663862;85;21083;-76
2022/04/15 04:52:37;;;;;;;30.17;16.50;;;;;;;6.06;100.00;98426.22;1664515;85;21489;-74
2022/04/15 04:55:06;;;;;;;30.87;17.17;;;;;;;6.13;100.00;98423.65;1664256;85;21089;-74
2022/04/15 04:57:33;;;;;;;34.90;18.33;;;;;;;6.23;100.00;98418.00;1687315;85;21050;-74
2022/04/15 05:00:00;;;;;;;35.40;19.93;;;;;;;6.31;100.00;98399.66;1664030;85;21083;-75
2022/04/15 05:02:30;;;;;;;36.37;21.47;;;;;;;6.35;100.00;98395.06;1663973;85;21024;-74
2022/04/15 05:04:57;;;;;;;39.53;21.70;;;;;;;6.43;100.00;98382.08;1664373;85;21090;-75
2022/04/15 05:07:24;;;;;;;34.93;21.03;;;;;;;6.51;100.00;98370.41;1687535;85;21039;-73
2022/04/15 05:09:53;;;;;;;40.90;22.13;;;;;;;6.60;100.00;98366.59;1687364;85;21023;-76
2022/04/15 05:12:19;;;;;;;38.23;21.57;;;;;;;6.70;100.00;98360.44;1664492;85;20992;-73
2022/04/15 05:14:49;;;;;;;37.87;22.90;;;;;;;6.78;100.00;98349.59;1687474;85;21192;-74
2022/04/15 05:17:16;;;;;;;36.30;21.20;;;;;;;6.86;100.00;98342.45;1688020;84;21059;-75
2022/04/15 05:19:44;;;;;;;33.83;19.67;;;;;;;6.95;100.00;98345.34;1688925;84;21039;-75
2022/04/15 05:22:13;;;;;;;34.97;20.13;;;;;;;7.04;100.00;98333.44;1687621;85;21073;-75
2022/04/15 05:24:40;;;;;;;41.60;23.57;;;;;;;7.13;100.00;98325.57;1687752;85;21160;-74
2022/04/15 05:27:07;;;;;;;44.97;24.80;;;;;;;7.20;100.00;98321.09;1664762;85;21075;-72
2022/04/15 05:29:34;;;;;;;45.50;25.33;;;;;;;7.30;100.00;98322.66;1656161;85;21528;-73
2022/04/15 05:32:04;;;;;;;43.90;24.50;;;;;;;7.39;100.00;98317.46;1659069;86;21036;-73
2022/04/15 05:34:31;;;;;;;45.60;25.30;;;;;;;7.48;100.00;98304.20;1677681;85;21120;-72
2022/04/15 05:37:00;;;;;;;40.83;24.87;;;;;;;7.53;100.00;98303.10;1674709;85;21061;-73
2022/04/15 05:39:29;;;;;;;45.63;25.93;;;;;;;7.60;100.00;98305.33;1716106;83;21046;-72
2022/04/15 05:41:57;;;;;;;42.40;24.93;;;;;;;7.65;100.00;98295.84;1620508;87;21718;-73
2022/04/15 05:44:24;;;;;;;42.73;24.93;;;;;;;7.70;100.00;98292.91;1626015;88;20982;-74
2022/04/15 05:46:52;;;;;;;39.10;21.70;;;;;;;7.77;100.00;98287.55;1675231;84;21047;-75
2022/04/15 05:49:19;;;;;;;36.33;20.50;;;;;;;7.85;100.00;98296.02;1651077;84;20989;-73
2022/04/15 05:51:46;;;;;;;34.70;20.87;;;;;;;7.94;100.00;98288.09;1690431;84;21073;-74
2022/04/15 05:54:13;;;;;;;37.40;20.63;;;;;;;8.03;100.00;98290.12;1698651;83;21023;-73
2022/04/15 05:56:41;;;;;;;38.47;21.90;;;;;;;8.07;100.00;98292.20;1722909;83;21126;-71
2022/04/15 05:59:09;;;;;;;38.90;21.70;;;;;;;8.11;100.00;98298.02;1689720;84;21629;-74
2022/04/15 06:01:36;;;;;;;44.93;29.40;;;;;;;8.14;100.00;98311.95;1687037;83;21013;-74
2022/04/15 06:04:03;;;;;;;35.57;20.80;;;;;;;8.23;100.00;98312.59;1685313;84;21094;-72
2022/04/15 06:06:31;;;;;;;36.97;21.10;;;;;;;8.34;100.00;98314.75;1708950;83;21112;-72
2022/04/15 06:08:59;;;;;;;37.30;21.60;;;;;;;8.43;100.00;98315.94;1714776;83;21101;-74
2022/04/15 06:11:26;;;;;;;36.93;22.50;;;;;;;8.49;100.00;98320.02;1708358;83;21014;-72
2022/04/15 06:13:53;;;;;;;36.27;22.10;;;;;;;8.58;100.00;98326.08;1684392;83;21043;-73
2022/04/15 06:16:26;;;;;;;34.27;20.03;;;;;;;8.68;100.00;98328.41;1679920;83;21654;-74
2022/04/15 06:18:52;;;;;;;27.20;16.70;;;;;;;8.78;100.00;98330.19;1696122;85;21044;-74
2022/04/15 06:21:20;;;;;;;27.37;15.87;;;;;;;8.88;100.00;98333.34;1696622;85;21029;-74
2022/04/15 06:23:48;;;;;;;31.77;17.00;;;;;;;9.03;100.00;98333.20;1673751;85;21105;-74
2022/04/15 06:26:15;;;;;;;32.10;18.00;;;;;;;9.17;100.00;98334.08;1668550;85;21089;-74
2022/04/15 06:28:44;;;;;;;27.40;17.20;;;;;;;9.28;100.00;98341.56;1668629;86;21069;-75
2022/04/15 06:31:17;;;;;;;30.83;18.30;;;;;;;9.36;100.00;98348.63;1667892;86;21084;-77
2022/04/15 06:33:45;;;;;;;32.30;19.07;;;;;;;9.45;100.00;98354.13;1619167;87;21035;-74
2022/04/15 06:36:12;;;;;;;30.50;17.70;;;;;;;9.55;100.00;98365.06;1631578;87;21105;-73
2022/04/15 06:38:40;;;;;;;30.13;18.43;;;;;;;9.64;100.00;98368.69;1629709;86;21096;-73
2022/04/15 06:41:08;;;;;;;30.33;17.70;;;;;;;9.73;100.00;98387.40;1568562;90;21050;-72
2022/04/15 06:43:36;;;;;;;37.03;19.70;;;;;;;9.84;100.00;98394.38;1648363;86;21031;-73
2022/04/15 06:46:03;;;;;;;33.37;19.13;;;;;;;10.05;100.00;98400.59;1605226;88;21130;-76
2022/04/15 06:48:30;;;;;;;33.88;20.37;;;;;;;10.19;100.00;98408.18;1620335;87;21163;-74
2022/04/15 06:50:57;;;;;;;38.67;20.67;;;;;;;10.34;100.00;98420.14;1620794;88;21083;-73
2022/04/15 06:53:25;;;;;;;35.38;20.68;;;;;;;10.45;100.00;98428.45;1604909;88;21044;-74
2022/04/15 06:55:53;;;;;;;31.97;19.52;;;;;;;10.53;100.00;98454.42;1571123;90;21095;-72
2022/04/15 06:58:20;;;;;;;32.83;19.70;;;;;;;10.55;100.00;98477.19;1591563;88;21106;-74
2022/04/15 07:00:47;;;;;;;33.05;18.32;;;;;;;10.62;100.00;98509.09;1591607;88;21045;-73
2022/04/15 07:03:15;;;;;;;30.43;17.90;;;;;;;10.70;100.00;98521.58;1621314;88;21100;-73
2022/04/15 07:05:44;;;;;;;31.97;18.12;;;;;;;10.77;100.00;98544.03;1621338;88;21072;-75
2022/04/15 07:08:13;;;;;;;29.13;17.40;;;;;;;10.81;100.00;98562.31;1599253;88;21056;-73
2022/04/15 07:10:42;;;;;;;31.00;17.55;;;;;;;10.90;100.00;98580.52;1609357;89;21780;-72
2022/04/15 07:13:10;;;;;;;30.57;18.05;;;;;;;10.96;100.00;98596.42;1591082;90;21050;-71
2022/04/15 07:15:39;;;;;;;33.70;18.98;;;;;;;11.02;100.00;98609.13;1622592;86;21219;-69
2022/04/15 07:18:06;;;;;;;38.35;21.70;;;;;;;11.09;100.00;98620.77;1623689;88;21087;-75
2022/04/15 07:20:35;;;;;;;34.03;21.68;;;;;;;11.18;100.00;98626.80;1613939;87;21062;-75
2022/04/15 07:23:03;;;;;;;33.42;20.32;;;;;;;11.27;100.00;98661.23;1651700;85;21064;-73
2022/04/15 07:25:31;;;;;;;30.25;18.15;;;;;;;11.31;100.00;98724.72;1678651;84;21151;-70
2022/04/15 07:28:00;;;;;;;32.05;18.40;;;;;;;11.27;100.00;98800.06;1729033;82;21046;-74
2022/04/15 07:30:29;;;;;;;33.28;18.95;;;;;;;11.27;100.00;98891.24;1713090;83;21514;-73
2022/04/15 07:32:59;;;;;;;40.92;21.77;;;;;;;11.31;100.00;98931.73;1709393;83;21596;-75
2022/04/15 07:35:28;;;;;;;33.33;20.70;;;;;;;11.44;100.00;98963.41;1684753;84;21062;-73
2022/04/15 07:38:00;;;;;;;39.95;22.95;;;;;;;11.47;100.00;99018.50;1772207;80;21036;-74
2022/04/15 07:40:29;;;;;;;39.33;22.60;;;;;;;11.48;100.00;99062.97;1761651;80;21068;-76
2022/04/15 07:42:57;;;;;;;39.38;23.20;;;;;;;11.61;100.00;99131.77;1740509;82;21070;-74
2022/04/15 07:45:25;;;;;;;35.83;22.60;;;;;;;11.73;100.00;99167.55;1717582;82;21012;-75
2022/04/15 07:47:52;;;;;;;39.30;21.23;;;;;;;11.82;100.00;99208.02;1745424;82;21014;-74
2022/04/15 07:50:24;;;;;;;29.27;16.62;;;;;;;12.01;100.00;99233.06;1694909;82;21618;-74
2022/04/15 07:55:28;;;;;;;33.23;19.65;;;;;;;12.23;100.00;99318.34;1708279;84;21602;-75
2022/04/15 07:57:55;;;;;;;29.50;16.70;;;;;;;12.26;100.00;99364.02;1708328;84;21057;-73
2022/04/15 08:00:22;;;;;;;22.60;13.30;;;;;;;12.28;100.00;99404.80;1682749;84;21080;-74
2022/04/15 08:02:49;;;;;;;25.10;12.45;;;;;;;12.25;100.00;99505.50;1707285;84;21040;-74
2022/04/15 08:05:17;;;;;;;24.90;12.78;;;;;;;12.22;100.00;99659.03;1708428;84;21045;-77
2022/04/15 08:07:44;;;;;;;29.63;16.57;;;;;;;12.15;100.00;99801.23;1707361;84;21030;-75
2022/04/15 08:10:12;;;;;;;21.73;12.15;;;;;;;12.18;100.00;99860.16;1682678;84;21109;-74
2022/04/15 08:12:40;;;;;;;14.70;7.97;;;;;;;12.25;100.00;99893.14;1683569;84;21123;-73
2022/04/15 08:15:09;;;;;;;12.37;7.15;;;;;;;12.30;100.00;99921.03;1708015;84;21026;-75
2022/04/15 08:17:37;;;;;;;18.15;9.25;;;;;;;12.28;100.00;99956.98;1684144;84;21001;-73
2022/04/15 08:20:07;;;;;;;25.02;16.20;;;;;;;12.34;100.00;99973.36;1705340;83;21016;-70
2022/04/15 08:22:35;;;;;;;19.65;10.98;;;;;;;12.34;100.00;99985.56;1677786;84;21051;-74
2022/04/15 08:25:06;;;;;;;17.20;10.08;;;;;;;12.33;100.00;99989.80;1705127;83;21035;-74
2022/04/15 08:27:35;;;;;;;16.62;9.45;;;;;;;12.33;100.00;100002.01;1680175;84;21493;-73
2022/04/15 08:30:03;;;;;;;16.93;9.78;;;;;;;12.32;100.00;100012.51;1704976;84;21043;-74
2022/04/15 08:32:36;;;;;;;22.48;12.35;;;;;;;12.28;100.00;100028.30;1705365;84;21126;-75
2022/04/15 08:35:06;;;;;;;19.95;11.65;;;;;;;12.25;100.00;100040.02;1668333;85;21067;-74
2022/04/15 08:37:34;;;;;;;22.77;11.25;;;;;;;12.27;100.00;100045.61;1657766;85;21708;-73
2022/04/15 08:40:01;;;;;;;19.77;11.18;;;;;;;12.30;100.00;100032.19;1687276;84;21139;-71
2022/04/15 08:42:28;;;;;;;18.80;10.70;;;;;;;12.27;100.00;100040.19;1662644;86;21045;-75
2022/04/15 08:44:56;;;;;;;22.10;11.08;;;;;;;12.25;100.00;100043.59;1665407;84;21015;-77
2022/04/15 08:47:24;;;;;;;20.82;10.10;;;;;;;12.24;100.00;100051.39;1664234;86;21090;-76
2022/04/15 08:49:51;;;;;;;19.40;10.72;;;;;;;12.17;100.00;100050.42;1662848;86;21009;-74
2022/04/15 08:52:18;;;;;;;21.17;10.32;;;;;;;12.13;100.00;100054.53;1642878;83;21069;-75
2022/04/15 08:54:47;;;;;;;19.48;9.98;;;;;;;12.07;100.00;100057.95;1733283;82;21030;-73
2022/04/15 08:57:14;;;;;;;18.65;9.60;;;;;;;12.07;100.00;100063.38;1721036;82;20982;-73
2022/04/15 08:59:43;;;;;;;14.47;8.63;;;;;;;11.98;100.00;100076.66;1702152;82;21046;-74
2022/04/15 09:02:14;;;;;;;14.87;8.88;;;;;;;11.92;100.00;100075.51;1755292;82;21077;-76
2022/04/15 09:04:42;;;;;;;15.08;8.40;;;;;;;11.93;100.00;100078.53;1756865;82;21061;-72
2022/04/15 09:07:13;;;;;;;10.53;7.10;;;;;;;11.95;100.00;100073.28;1754797;80;20998;-74
2022/04/15 09:09:41;;;;;;;13.20;6.97;;;;;;;11.96;100.00;100069.53;1754887;82;21348;-74
2022/04/15 09:12:14;;;;;;;12.70;7.72;;;;;;;12.02;100.00;100069.84;1754551;82;21096;-72
2022/04/15 09:14:45;;;;;;;11.45;6.67;;;;;;;12.10;100.00;100071.15;1749895;82;21073;-73
2022/04/15 09:17:12;;;;;;;10.53;6.90;;;;;;;12.17;100.00;100068.56;1755171;82;21059;-74
2022/04/15 09:19:39;;;;;;;10.58;6.40;;;;;;;12.19;100.00;100067.87;1755357;82;21057;-73
2022/04/15 09:22:13;;;;;;;9.95;6.00;;;;;;;12.24;100.00;100077.66;1718431;81;21063;-73
2022/04/15 09:24:42;;;;;;;11.73;6.95;;;;;;;12.24;100.00;100080.38;1761199;81;21051;-74
2022/04/15 09:27:10;;;;;;;12.03;7.53;;;;;;;12.21;100.00;100082.08;1767129;81;21134;-71
2022/04/15 09:29:41;;;;;;;10.98;6.45;;;;;;;12.29;100.00;100086.09;1765485;81;21048;-73
2022/04/15 09:32:14;;;;;;;14.80;8.43;;;;;;;12.35;100.00;100079.94;1708536;84;21057;-69
2022/04/15 09:35:07;;;;;;;12.53;7.15;;;;;;;12.34;100.00;100087.23;1721110;82;21031;-69
2022/04/15 09:42:55;;;;;;;13.53;7.70;;;;;;;12.33;100.00;100086.89;1579614;91;21169;-74
2022/04/15 09:45:27;;;;;;;10.35;6.75;;;;;;;12.41;100.00;100090.07;1586642;90;21127;-76
2022/04/15 09:48:02;;;;;;;12.35;6.62;;;;;;;12.41;100.00;100095.98;1586068;90;21124;-73
2022/04/15 09:50:34;;;;;;;11.18;6.92;;;;;;;12.40;100.00;100099.22;1586071;90;21108;-75
2022/04/15 09:53:20;;;;;;;10.72;6.42;;;;;;;12.36;100.00;100101.97;1575617;90;21259;-74
2022/04/15 09:55:50;;;;;;;10.50;6.33;;;;;;;12.33;100.00;100108.58;1560617;92;21606;-75
2022/04/15 09:58:20;;;;;;;11.25;6.35;;;;;;;12.26;100.00;100113.56;1540469;92;21437;-74
2022/04/15 10:00:51;;;;;;;10.20;6.58;;;;;;;12.22;100.00;100106.83;1581687;90;21143;-70
2022/04/15 10:03:24;;;;;;;12.20;6.90;;;;;;;12.25;100.00;100101.02;1599220;89;21091;-74
2022/04/15 10:05:55;;;;;;;;;;;;;;;12.23;100.00;100095.77;1520814;93;21139;-74
2022/04/15 10:08:27;;;;;;;10.72;6.60;;;;;;;12.30;100.00;100099.45;1537117;92;20421;-74
2022/04/15 10:10:55;;;;;;;15.15;7.78;;;;;;;12.34;100.00;100091.80;1536967;93;21064;-74
2022/04/15 10:13:28;;;;;;;17.98;8.73;;;;;;;12.35;100.00;100086.19;1537397;92;21231;-74
2022/04/15 10:15:54;;;;;;;11.25;7.03;;;;;;;12.43;100.00;100089.86;1537596;93;21115;-72
2022/04/15 10:18:22;;;;;;;15.18;7.62;;;;;;;12.46;100.00;100089.50;1518257;93;21126;-73
2022/04/15 10:20:51;;;;;;;16.55;7.85;;;;;;;12.40;100.00;100088.89;1537875;93;21205;-73
2022/04/15 10:23:19;;;;;;;14.83;7.33;;;;;;;12.36;100.00;100093.84;1519029;93;21111;-76
2022/04/15 10:25:48;;;;;;;11.50;7.05;;;;;;;12.32;100.00;100097.91;1537796;93;21092;-75
2022/04/15 10:28:40;;;;;;;22.58;12.53;;;;;;;12.37;100.00;100080.59;1537378;93;21075;-74
2022/04/15 10:31:11;;;;;;;13.50;6.85;;;;;;;12.44;100.00;100084.26;1508304;94;21132;-74
2022/04/15 10:33:40;;;;;;;11.33;6.50;;;;;;;12.33;100.00;100088.77;1538035;93;21118;-72
2022/04/15 10:36:23;;;;;;;32.00;13.13;;;;;;;12.31;100.00;100090.82;1539047;92;21168;-74
2022/04/15 10:39:10;;;;;;;20.57;9.10;;;;;;;12.39;100.00;100082.60;1582636;90;21224;-73
2022/04/15 10:41:49;;;;;;;11.70;7.08;;;;;;;12.46;100.00;100080.02;1625553;88;21058;-74
2022/04/15 10:44:32;;;;;;;20.88;13.22;;;;;;;12.46;100.00;100084.08;1613825;88;21550;-74
2022/04/15 10:47:23;;;;;;;12.28;7.67;;;;;;;12.48;100.00;100078.83;1587082;88;21618;-76
2022/04/15 10:50:00;;;;;;;9.43;6.67;;;;;;;12.56;100.00;100072.47;1586018;88;21109;-73
2022/04/15 10:52:30;;;;;;;17.12;9.18;;;;;;;12.61;100.00;100078.20;1609118;88;21701;-71
2022/04/15 10:55:02;;;;;;;13.43;6.83;;;;;;;12.64;100.00;100075.61;1683362;80;21013;-69
2022/04/15 10:57:35;;;;;;;11.10;6.33;;;;;;;12.66;100.00;100071.70;1777107;80;21523;-77
2022/04/15 11:02:53;;;;;;;14.43;8.20;;;;;;;12.60;100.00;100073.78;1813763;79;20090;-74
2022/04/15 11:05:35;;;;;;;13.13;8.18;;;;;;;12.68;100.00;100070.17;1813032;79;21311;-75
2022/04/15 11:08:09;;;;;;;12.68;7.00;;;;;;;12.72;100.00;100068.25;1785701;79;21049;-74
2022/04/15 11:10:59;;;;;;;15.00;7.40;;;;;;;12.72;100.00;100063.34;1786727;79;21022;-74
2022/04/15 11:13:44;;;;;;;13.08;7.20;;;;;;;12.60;100.00;100061.58;1786209;79;21061;-74
2022/04/15 11:16:18;;;;;;;14.53;7.40;;;;;;;12.59;100.00;100075.31;1805714;79;21535;-75
2022/04/15 11:18:58;;;;;;;10.78;6.28;;;;;;;12.58;100.00;100073.66;1798303;79;21081;-73
2022/04/15 11:21:35;;;;;;;11.38;6.15;;;;;;;12.60;100.00;100064.29;1763782;81;21056;-74
2022/04/15 11:24:10;;;;;;;9.98;6.53;;;;;;;12.56;100.00;100067.57;1763819;80;21053;-71
2022/04/15 11:26:42;;;;;;;10.90;6.75;;;;;;;12.63;100.00;100058.50;1712592;83;21079;-73
2022/04/15 11:29:12;;;;;;;12.50;6.85;;;;;;;12.67;100.00;100057.63;1669380;85;21114;-75
2022/04/15 11:31:46;;;;;;;11.15;6.92;;;;;;;12.68;100.00;100062.03;1665375;86;21061;-69
2022/04/15 11:34:15;;;;;;;16.42;9.13;;;;;;;12.70;100.00;100065.40;1626081;88;21063;-70